Time;durP1;ratioP1;P1;durP2;ratioP2;P2;SDS_P1;SDS_P2;PMS_P1;PMS_P2;Temp;Humidity;BMP_temperature;BMP_pressure;BME280_temperature;BME280_humidity;BME280_pressure;Samples;Min_cycle;Max_cycle;Signal;HPM_P1;HPM_P2
2024/04/05 00:01:51;;;;;;;20.48;5.20;;;359.00;2329.60;;;;;;4980790;28;20026;-75
2024/04/05 00:04:17;;;;;;;14.70;5.43;;;359.00;2329.60;;;;;;4977371;28;20030;-75
2024/04/05 00:06:43;;;;;;;10.55;4.25;;;358.80;2329.60;;;;;;4978136;28;20477;-76
2024/04/05 00:09:09;;;;;;;7.57;3.47;;;358.80;2329.60;;;;;;4973713;28;20073;-76
2024/04/05 00:11:35;;;;;;;11.52;5.10;;;358.70;2329.60;;;;;;4973964;28;20038;-76
2024/04/05 00:14:01;;;;;;;10.18;4.30;;;;;;;;;;4977498;28;20019;-75
2024/04/05 00:16:27;;;;;;;10.40;3.53;;;358.40;2329.60;;;;;;4978702;28;20023;-76
2024/04/05 00:18:55;;;;;;;8.93;4.13;;;333.70;2329.60;;;;;;4977227;28;20058;-74
2024/04/05 00:21:21;;;;;;;8.50;3.28;;;333.70;2329.60;;;;;;4976888;28;20029;-75
2024/04/05 00:23:49;;;;;;;8.73;3.20;;;333.60;2329.60;;;;;;4979210;28;20022;-75
2024/04/05 00:26:15;;;;;;;5.97;2.75;;;333.60;2329.60;;;;;;4968534;28;20039;-75
2024/04/05 00:28:41;;;;;;;6.53;3.17;;;358.40;2329.60;;;;;;4976995;28;20035;-77
2024/04/05 00:31:10;;;;;;;12.07;4.47;;;333.70;2329.60;;;;;;4956343;28;20070;-76
2024/04/05 00:33:36;;;;;;;11.43;5.13;;;333.70;2329.60;;;;;;4957151;28;20031;-78
2024/04/05 00:36:02;;;;;;;8.90;4.60;;;333.70;2329.60;;;;;;4977542;28;20457;-75
2024/04/05 00:38:28;;;;;;;8.23;4.13;;;333.70;2329.60;;;;;;4976444;28;20038;-75
2024/04/05 00:40:55;;;;;;;7.57;3.53;;;333.70;2329.60;;;;;;4978016;28;20469;-76
2024/04/05 00:43:24;;;;;;;8.85;4.18;;;333.70;2329.60;;;;;;4979427;28;20030;-73
2024/04/05 00:45:51;;;;;;;8.45;4.03;;;333.70;2329.60;;;;;;4959149;28;20055;-76
2024/04/05 00:48:19;;;;;;;10.40;4.30;;;333.70;2329.60;;;;;;4964047;28;20081;-75
2024/04/05 00:50:47;;;;;;;5.28;3.50;;;333.60;2329.60;;;;;;4960304;28;20449;-75
2024/04/05 00:53:19;;;;;;;12.90;3.75;;;333.50;2329.60;;;;;;4976752;28;20038;-75
2024/04/05 00:55:47;;;;;;;11.90;5.55;;;333.40;2329.60;;;;;;4958937;28;20019;-75
2024/04/05 00:58:14;;;;;;;12.57;5.45;;;333.30;2329.60;;;;;;4974509;28;20081;-75
2024/04/05 01:00:40;;;;;;;12.20;5.18;;;333.30;2329.60;;;;;;4977106;28;20499;-76
2024/04/05 01:03:06;;;;;;;10.18;4.75;;;333.30;2329.60;;;;;;4959697;28;20035;-76
2024/04/05 01:05:33;;;;;;;12.75;4.75;;;333.40;2329.60;;;;;;4965288;28;20023;-78
2024/04/05 01:08:00;;;;;;;6.38;3.30;;;333.50;2329.60;;;;;;4976158;28;20109;-77
2024/04/05 01:10:25;;;;;;;8.82;3.80;;;333.60;2329.60;;;;;;4976865;28;20038;-75
2024/04/05 01:13:03;;;;;;;7.78;4.25;;;333.60;2329.60;;;;;;4976722;28;20030;-76
2024/04/05 01:15:29;;;;;;;9.85;3.90;;;333.70;2329.60;;;;;;4976661;28;20031;-76
2024/04/05 01:17:58;;;;;;;10.35;3.75;;;358.50;2329.60;;;;;;4959213;28;20123;-75
2024/04/05 01:20:27;;;;;;;10.60;4.93;;;358.60;2329.60;;;;;;4960069;28;20055;-76
2024/04/05 01:22:53;;;;;;;7.78;4.00;;;358.70;2329.60;;;;;;4975442;28;20057;-76
2024/04/05 01:25:20;;;;;;;11.02;4.32;;;358.60;2329.60;;;;;;4956939;28;20023;-75
2024/04/05 01:27:46;;;;;;;6.47;3.50;;;358.90;2329.60;;;;;;4976236;28;20472;-75
2024/04/05 01:30:12;;;;;;;7.63;4.32;;;358.70;2329.60;;;;;;4971010;28;20034;-75
2024/04/05 01:32:38;;;;;;;11.70;4.28;;;358.70;2329.60;;;;;;4975810;28;20023;-76
2024/04/05 01:35:04;;;;;;;7.60;4.32;;;358.70;2329.60;;;;;;4978858;28;20027;-75
2024/04/05 01:37:30;;;;;;;11.93;4.90;;;358.40;2329.60;;;;;;4961335;28;20488;-75
2024/04/05 01:39:56;;;;;;;13.63;4.38;;;358.70;2329.60;;;;;;4974223;28;20029;-75
2024/04/05 01:42:22;;;;;;;8.85;4.22;;;358.70;2329.60;;;;;;4976251;28;20106;-75
2024/04/05 01:44:48;;;;;;;11.55;4.70;;;358.70;2329.60;;;;;;4981800;28;20041;-76
2024/04/05 01:47:14;;;;;;;9.07;4.30;;;358.70;2329.60;;;;;;4975870;28;20031;-75
2024/04/05 01:49:40;;;;;;;9.80;4.53;;;358.80;2329.60;;;;;;4975540;28;20054;-75
2024/04/05 01:55:38;;;;;;;7.95;4.05;;;358.70;2329.60;;;;;;4578349;23;20096;-75
2024/04/05 01:58:04;;;;;;;9.98;5.35;;;358.70;2329.60;;;;;;4972788;28;20074;-74
2024/04/05 02:00:29;;;;;;;10.25;4.25;;;358.70;2329.60;;;;;;4975974;28;20503;-74
2024/04/05 02:02:55;;;;;;;7.47;4.22;;;358.80;2329.60;;;;;;4993588;28;20037;-74
2024/04/05 02:05:21;;;;;;;9.90;4.13;;;358.90;2329.60;;;;;;4975951;28;20053;-75
2024/04/05 02:07:47;;;;;;;7.80;3.80;;;358.90;2329.60;;;;;;4976161;28;20061;-74
2024/04/05 02:10:13;;;;;;;8.13;4.32;;;358.80;2329.60;;;;;;4975410;28;20077;-74
2024/04/05 02:12:38;;;;;;;10.07;4.18;;;358.70;2329.60;;;;;;4992972;28;20023;-75
2024/04/05 02:15:04;;;;;;;7.38;3.72;;;358.70;2329.60;;;;;;4975739;28;20026;-75
2024/04/05 02:17:30;;;;;;;6.35;3.58;;;358.70;2329.60;;;;;;4993176;28;20030;-74
2024/04/05 02:19:56;;;;;;;8.90;4.20;;;358.70;2329.60;;;;;;4976031;28;20472;-75
2024/04/05 02:22:22;;;;;;;7.05;4.20;;;358.70;2329.60;;;;;;4975793;28;20026;-75
2024/04/05 02:24:48;;;;;;;13.40;4.22;;;358.60;2329.60;;;;;;4975246;28;20121;-75
2024/04/05 02:27:16;;;;;;;11.43;4.80;;;358.70;2329.60;;;;;;4975896;28;20026;-75
2024/04/05 02:29:42;;;;;;;9.38;4.28;;;358.60;2329.60;;;;;;4973175;28;20379;-75
2024/04/05 02:32:08;;;;;;;12.32;4.30;;;358.60;2329.60;;;;;;4976126;28;20049;-75
2024/04/05 02:34:33;;;;;;;6.82;3.63;;;358.60;2329.60;;;;;;4993597;28;20512;-75
2024/04/05 02:36:59;;;;;;;6.80;3.65;;;358.70;2329.60;;;;;;4975125;28;20049;-75
2024/04/05 02:39:25;;;;;;;9.50;4.15;;;358.70;2329.60;;;;;;4993575;28;20026;-75
2024/04/05 02:41:51;;;;;;;9.25;3.90;;;358.60;2329.60;;;;;;4975199;28;20049;-75
2024/04/05 02:44:17;;;;;;;7.78;3.78;;;358.70;2329.60;;;;;;4992648;28;20413;-75
2024/04/05 02:46:43;;;;;;;7.13;3.70;;;358.60;2329.60;;;;;;4975289;28;20061;-74
2024/04/05 02:49:11;;;;;;;9.98;4.32;;;358.60;2329.60;;;;;;4993371;28;20030;-74
2024/04/05 02:51:36;;;;;;;9.38;4.15;;;358.60;2329.60;;;;;;4974853;28;20104;-74
2024/04/05 02:54:03;;;;;;;9.30;4.15;;;358.50;2329.60;;;;;;4990831;28;20022;-75
2024/04/05 02:56:29;;;;;;;6.53;3.60;;;358.50;2329.60;;;;;;4974117;28;20046;-74
2024/04/05 02:58:56;;;;;;;8.80;3.97;;;358.40;2329.60;;;;;;4992676;28;20038;-74
2024/04/05 03:01:23;;;;;;;7.65;4.40;;;333.60;2329.60;;;;;;4992577;28;20014;-74
2024/04/05 03:03:50;;;;;;;11.30;4.63;;;333.60;2329.60;;;;;;4991767;28;20113;-75
2024/04/05 03:06:16;;;;;;;11.40;4.50;;;333.60;2329.60;;;;;;4975090;28;20030;-73
2024/04/05 03:08:42;;;;;;;11.75;5.00;;;333.60;2329.60;;;;;;4991790;28;20026;-74
2024/04/05 03:11:08;;;;;;;8.60;4.72;;;333.70;2329.60;;;;;;4975357;28;20369;-75
2024/04/05 03:13:34;;;;;;;12.23;5.30;;;333.70;2329.60;;;;;;4992023;28;20031;-74
2024/04/05 03:16:01;;;;;;;8.43;4.22;;;333.70;2329.60;;;;;;4992979;28;20060;-74
2024/04/05 03:18:27;;;;;;;12.88;5.53;;;333.70;2329.60;;;;;;4974688;28;20503;-74
2024/04/05 03:20:54;;;;;;;11.15;4.80;;;333.70;2329.60;;;;;;4992643;28;20030;-75
2024/04/05 03:23:20;;;;;;;8.45;4.70;;;358.40;2329.60;;;;;;4973575;28;20046;-74
2024/04/05 03:25:46;;;;;;;12.18;5.50;;;333.70;2329.60;;;;;;4991727;28;20464;-75
2024/04/05 03:28:12;;;;;;;10.57;5.38;;;333.70;2329.60;;;;;;4992051;28;20046;-74
2024/04/05 03:30:38;;;;;;;11.55;5.38;;;333.70;2329.60;;;;;;4991715;28;20022;-75
2024/04/05 03:33:04;;;;;;;8.57;4.90;;;358.40;2329.60;;;;;;4991996;28;20030;-75
2024/04/05 03:35:30;;;;;;;10.05;5.20;;;333.50;2329.60;;;;;;4974060;28;20109;-75
2024/04/05 03:37:56;;;;;;;9.35;5.55;;;333.70;2329.60;;;;;;4974626;28;20468;-75
2024/04/05 03:40:22;;;;;;;11.45;4.38;;;333.70;2329.60;;;;;;4992087;28;20023;-75
2024/04/05 03:42:48;;;;;;;9.10;4.80;;;333.60;2329.60;;;;;;4992022;28;20028;-74
2024/04/05 03:45:15;;;;;;;11.10;5.80;;;333.50;2329.60;;;;;;4991388;28;20019;-75
2024/04/05 03:47:42;;;;;;;8.73;4.82;;;333.40;2329.60;;;;;;4992040;28;20023;-75
2024/04/05 03:50:08;;;;;;;10.93;4.50;;;333.40;2329.60;;;;;;4991926;28;20490;-77
2024/04/05 03:52:34;;;;;;;13.50;5.63;;;333.40;2329.60;;;;;;4992155;28;20022;-75
2024/04/05 03:55:00;;;;;;;13.10;5.78;;;333.40;2329.60;;;;;;4991494;28;20055;-75
2024/04/05 03:57:26;;;;;;;10.25;5.78;;;333.40;2329.60;;;;;;4992164;28;20027;-76
2024/04/05 03:59:52;;;;;;;11.38;5.65;;;333.40;2329.60;;;;;;4974653;28;20042;-74
2024/04/05 04:02:17;;;;;;;16.60;7.47;;;333.40;2329.60;;;;;;4990888;28;20458;-74
2024/04/05 04:04:43;;;;;;;21.80;9.98;;;333.40;2329.60;;;;;;4991839;28;20101;-75
2024/04/05 04:07:09;;;;;;;14.50;7.10;;;333.20;2329.60;;;;;;4991943;28;20528;-74
2024/04/05 04:09:36;;;;;;;11.60;7.00;;;333.10;2329.60;;;;;;4974702;28;20035;-74
2024/04/05 04:12:03;;;;;;;15.07;6.80;;;333.10;2329.60;;;;;;4990961;28;20080;-78
2024/04/05 04:14:29;;;;;;;11.18;5.65;;;333.00;2329.60;;;;;;4975739;28;20471;-74
2024/04/05 04:16:55;;;;;;;11.75;5.47;;;332.90;2329.60;;;;;;4974153;28;20033;-75
2024/04/05 04:19:21;;;;;;;10.70;4.72;;;332.80;2329.60;;;;;;4992134;28;20056;-76
2024/04/05 04:21:47;;;;;;;11.32;5.00;;;332.80;2329.60;;;;;;4976203;28;20053;-74
2024/04/05 04:24:14;;;;;;;10.60;5.28;;;308.10;2304.00;;;;;;4991820;28;20476;-74
2024/04/05 04:26:40;;;;;;;12.50;5.00;;;308.10;2304.00;;;;;;4991740;28;20037;-74
2024/04/05 04:29:06;;;;;;;20.13;6.30;;;308.10;2304.00;;;;;;4991501;28;20389;-75
2024/04/05 04:31:32;;;;;;;15.88;5.32;;;308.10;2304.00;;;;;;4991467;28;20027;-75
2024/04/05 04:33:58;;;;;;;11.32;4.97;;;308.10;2304.00;;;;;;4992833;28;20030;-75
2024/04/05 04:36:24;;;;;;;11.50;5.90;;;308.00;2304.00;;;;;;4995375;28;20014;-74
2024/04/05 04:38:51;;;;;;;17.80;5.97;;;308.10;2304.00;;;;;;4977405;28;20042;-75
2024/04/05 04:41:17;;;;;;;19.77;6.38;;;332.80;2329.60;;;;;;4979743;28;20379;-75
2024/04/05 04:43:44;;;;;;;8.95;5.40;;;332.90;2329.60;;;;;;4973048;28;20034;-75
2024/04/05 04:46:11;;;;;;;11.70;6.10;;;332.80;2329.60;;;;;;4985521;28;20404;-75
2024/04/05 04:48:38;;;;;;;15.10;6.82;;;332.90;2329.60;;;;;;4968995;28;20033;-73
2024/04/05 04:51:04;;;;;;;13.48;5.30;;;333.00;2329.60;;;;;;4994066;28;20019;-74
2024/04/05 04:53:30;;;;;;;13.35;6.35;;;333.20;2329.60;;;;;;4986208;28;20106;-75
2024/04/05 04:55:56;;;;;;;12.07;6.38;;;333.30;2329.60;;;;;;4994022;28;20129;-77
2024/04/05 04:58:28;;;;;;;14.38;6.95;;;333.40;2329.60;;;;;;4972579;28;20404;-72
2024/04/05 05:00:57;;;;;;;18.63;7.85;;;333.40;2329.60;;;;;;4993758;28;20026;-73
2024/04/05 05:03:23;;;;;;;21.63;8.40;;;333.50;2329.60;;;;;;4988470;28;20057;-73
2024/04/05 05:05:49;;;;;;;12.80;7.03;;;333.50;2329.60;;;;;;4994027;28;20034;-72
2024/04/05 05:08:15;;;;;;;12.40;6.50;;;333.50;2329.60;;;;;;4988393;28;20123;-72
2024/04/05 05:10:42;;;;;;;20.63;7.10;;;333.70;2329.60;;;;;;4978891;28;20027;-74
2024/04/05 05:13:11;;;;;;;22.65;7.47;;;333.60;2329.60;;;;;;4992883;28;20472;-72
2024/04/05 05:15:41;;;;;;;15.73;6.50;;;333.50;2329.60;;;;;;4987874;28;20022;-76
2024/04/05 05:18:11;;;;;;;19.58;6.90;;;333.40;2329.60;;;;;;4983371;28;20031;-75
2024/04/05 05:20:45;;;;;;;15.65;7.30;;;333.60;2329.60;;;;;;4985315;28;20480;-72
2024/04/05 05:23:10;;;;;;;16.27;6.43;;;333.70;2329.60;;;;;;4983352;28;20503;-72
2024/04/05 05:25:37;;;;;;;12.93;6.90;;;333.70;2329.60;;;;;;4986990;28;20158;-73
2024/04/05 05:28:04;;;;;;;13.27;8.15;;;333.70;2329.60;;;;;;4982534;28;20117;-72
2024/04/05 05:30:30;;;;;;;15.15;7.32;;;358.50;2329.60;;;;;;4985487;28;20551;-73
2024/04/05 05:32:56;;;;;;;19.00;8.23;;;358.40;2329.60;;;;;;4984747;28;20059;-72
2024/04/05 05:35:23;;;;;;;15.75;7.30;;;358.50;2329.60;;;;;;4991226;28;20048;-72
2024/04/05 05:37:49;;;;;;;19.35;8.25;;;358.60;2329.60;;;;;;4987910;28;20471;-76
2024/04/05 05:40:15;;;;;;;14.10;6.93;;;358.70;2329.60;;;;;;4984900;28;20115;-71
2024/04/05 05:42:41;;;;;;;17.83;6.97;;;358.70;2329.60;;;;;;4969884;28;20030;-74
2024/04/05 05:45:07;;;;;;;13.80;6.82;;;358.80;2329.60;;;;;;4990162;28;20061;-74
2024/04/05 05:47:32;;;;;;;15.50;8.27;;;358.80;2329.60;;;;;;4989774;28;20026;-76
2024/04/05 05:49:58;;;;;;;12.75;6.50;;;358.90;2329.60;;;;;;4990327;28;20117;-73
2024/04/05 05:52:24;;;;;;;21.33;6.90;;;359.00;2329.60;;;;;;4984505;28;20018;-76
2024/04/05 05:54:51;;;;;;;17.38;7.57;;;359.10;2329.60;;;;;;4988954;28;20077;-75
2024/04/05 05:57:17;;;;;;;14.02;6.57;;;359.20;2329.60;;;;;;4992140;28;20034;-77
2024/04/05 05:59:42;;;;;;;13.45;6.10;;;359.30;2329.60;;;;;;4975758;28;20038;-78
2024/04/05 06:02:08;;;;;;;13.93;6.07;;;384.00;2329.60;;;;;;4967130;28;20030;-76
2024/04/05 06:04:34;;;;;;;13.80;6.68;;;384.10;2329.60;;;;;;4990717;28;20034;-75
2024/04/05 06:07:00;;;;;;;12.60;6.15;;;384.20;2329.60;;;;;;4974003;28;20030;-77
2024/04/05 06:09:28;;;;;;;12.27;5.90;;;384.40;2329.60;;;;;;4967903;28;20022;-75
2024/04/05 06:11:54;;;;;;;14.05;7.20;;;384.40;2329.60;;;;;;4967965;28;20531;-76
2024/04/05 06:14:20;;;;;;;11.35;6.80;;;384.90;2329.60;;;;;;4961827;28;20030;-76
2024/04/05 06:16:47;;;;;;;14.18;6.60;;;384.70;2329.60;;;;;;4986713;28;20031;-77
2024/04/05 06:19:13;;;;;;;11.70;7.18;;;384.80;2329.60;;;;;;4964067;28;20065;-76
2024/04/05 06:21:39;;;;;;;9.75;5.07;;;384.90;2329.60;;;;;;4970610;28;20400;-75
2024/04/05 06:24:05;;;;;;;11.85;5.15;;;409.70;2355.20;;;;;;4988565;28;20149;-76
2024/04/05 06:26:35;;;;;;;10.43;5.95;;;409.90;2355.20;;;;;;4976353;28;20093;-76
2024/04/05 06:29:01;;;;;;;10.50;4.82;;;;;;;;;;4987981;28;20023;-73
2024/04/05 06:31:27;;;;;;;9.88;4.60;;;410.20;2355.20;;;;;;4980841;28;20051;-74
2024/04/05 06:33:53;;;;;;;16.20;4.22;;;410.30;2355.20;;;;;;4984606;28;20093;-74
2024/04/05 06:36:18;;;;;;;9.25;4.53;;;435.30;2355.20;;;;;;4983376;28;20065;-74
2024/04/05 06:38:44;;;;;;;8.27;4.60;;;435.30;2355.20;;;;;;4987019;28;20089;-74
2024/04/05 06:41:10;;;;;;;7.53;3.63;;;435.50;2355.20;;;;;;4968477;28;20046;-75
2024/04/05 06:43:37;;;;;;;8.73;4.10;;;435.60;2355.20;;;;;;4985521;28;20523;-74
2024/04/05 06:46:07;;;;;;;14.73;4.18;;;435.70;2355.20;;;;;;4983835;28;20026;-75
2024/04/05 06:48:34;;;;;;;8.73;3.70;;;435.90;2355.20;;;;;;4986643;28;20026;-79
2024/04/05 06:51:00;;;;;;;10.80;3.50;;;436.10;2355.20;;;;;;4978615;28;20022;-79
2024/04/05 06:53:29;;;;;;;6.18;3.03;;;460.80;2380.80;;;;;;4984566;28;20092;-74
2024/04/05 06:55:55;;;;;;;7.68;3.13;;;461.10;2380.80;;;;;;4977749;28;20077;-77
2024/04/05 06:58:22;;;;;;;8.00;2.47;;;461.40;2380.80;;;;;;4962901;28;20035;-75
2024/04/05 07:00:48;;;;;;;5.82;2.08;;;486.40;2380.80;;;;;;4983859;28;20057;-78
2024/04/05 07:03:14;;;;;;;5.40;2.15;;;461.70;2380.80;;;;;;4978819;28;20037;-78
2024/04/05 07:05:40;;;;;;;6.65;2.72;;;486.50;2380.80;;;;;;4987987;28;20512;-74
2024/04/05 07:08:07;;;;;;;5.25;2.10;;;486.80;2304.00;;;;;;4991197;28;20160;-79
2024/04/05 07:10:33;;;;;;;6.95;2.70;;;486.90;2176.00;;;;;;4987069;28;20026;-74
2024/04/05 07:13:00;;;;;;;8.55;2.58;;;487.00;2150.40;;;;;;4980078;28;20053;-72
2024/04/05 07:15:26;;;;;;;9.10;2.40;;;487.20;2124.80;;;;;;4979116;28;20022;-75
2024/04/05 07:17:54;;;;;;;3.38;2.00;;;512.00;2099.20;;;;;;4981545;28;20041;-73
2024/04/05 07:20:21;;;;;;;9.18;2.30;;;512.20;2073.60;;;;;;4981372;28;20488;-75
2024/04/05 07:22:47;;;;;;;7.50;2.70;;;512.30;2022.40;;;;;;4966059;28;20030;-73
2024/04/05 07:25:13;;;;;;;8.02;2.45;;;512.50;1996.80;;;;;;4977086;28;20082;-74
2024/04/05 07:27:41;;;;;;;5.57;2.28;;;512.70;1945.60;;;;;;4985089;28;20027;-74
2024/04/05 07:30:07;;;;;;;6.20;2.28;;;512.90;1920.00;;;;;;4976333;28;20028;-73
2024/04/05 07:32:33;;;;;;;4.82;2.17;;;537.70;1920.00;;;;;;4979575;28;20101;-75
2024/04/05 07:34:59;;;;;;;6.07;2.08;;;537.70;1920.00;;;;;;4980858;28;20099;-79
2024/04/05 07:37:25;;;;;;;8.35;3.10;;;537.90;1920.00;;;;;;4982886;28;20085;-74
2024/04/05 07:39:50;;;;;;;6.97;1.95;;;537.80;1894.40;;;;;;4979688;28;20029;-76
2024/04/05 07:42:19;;;;;;;11.88;2.55;;;538.00;1868.80;;;;;;4977485;28;20019;-75
2024/04/05 07:44:46;;;;;;;9.40;2.30;;;538.20;1843.20;;;;;;4983032;28;20059;-73
2024/04/05 07:47:12;;;;;;;5.03;2.13;;;538.40;1817.60;;;;;;4982790;28;20047;-73
2024/04/05 07:49:38;;;;;;;6.00;2.10;;;538.50;1817.60;;;;;;4964829;28;20088;-73
2024/04/05 07:52:04;;;;;;;5.22;1.70;;;563.30;1817.60;;;;;;4994105;28;20085;-73
2024/04/05 07:54:30;;;;;;;7.32;1.98;;;563.40;1792.00;;;;;;4979818;28;20476;-73
2024/04/05 07:56:56;;;;;;;6.75;2.08;;;563.50;1740.80;;;;;;4986682;28;20027;-73
2024/04/05 07:59:22;;;;;;;8.73;2.65;;;563.60;1715.20;;;;;;4984846;28;20057;-73
2024/04/05 08:01:48;;;;;;;8.30;2.72;;;563.80;1740.80;;;;;;4976405;28;20019;-74
2024/04/05 08:04:15;;;;;;;7.70;2.63;;;564.10;1689.60;;;;;;4974626;28;20030;-77
2024/04/05 08:06:40;;;;;;;6.30;2.15;;;564.00;1689.60;;;;;;4980557;28;20110;-74
2024/04/05 08:09:07;;;;;;;7.80;2.75;;;588.80;1664.00;;;;;;4980034;28;20097;-73
2024/04/05 08:11:33;;;;;;;5.45;1.92;;;564.10;1664.00;;;;;;4983648;28;20088;-75
2024/04/05 08:13:59;;;;;;;6.05;2.42;;;563.90;1664.00;;;;;;4987160;28;20023;-73
2024/04/05 08:16:26;;;;;;;3.95;1.73;;;563.90;1689.60;;;;;;4983700;28;20030;-75
2024/04/05 08:18:54;;;;;;;5.10;2.00;;;564.00;1664.00;;;;;;4981575;28;20065;-74
2024/04/05 08:21:20;;;;;;;4.47;1.90;;;564.10;1664.00;;;;;;4989440;28;20022;-73
2024/04/05 08:23:46;;;;;;;4.72;1.65;;;588.90;1664.00;;;;;;4980901;28;20057;-73
2024/04/05 08:26:12;;;;;;;5.40;2.08;;;589.10;1638.40;;;;;;4990577;28;20084;-75
2024/04/05 08:28:39;;;;;;;6.32;1.85;;;589.30;1638.40;;;;;;4981750;28;20496;-74
2024/04/05 08:31:04;;;;;;;11.65;2.25;;;589.60;1612.80;;;;;;4984106;28;20444;-73
2024/04/05 08:33:31;;;;;;;4.30;1.73;;;589.70;1587.20;;;;;;4982478;28;20131;-75
2024/04/05 08:35:57;;;;;;;4.90;2.17;;;589.70;1587.20;;;;;;4979445;28;20033;-75
2024/04/05 08:38:22;;;;;;;4.57;1.80;;;589.60;1587.20;;;;;;4985922;28;20046;-74
2024/04/05 08:40:48;;;;;;;7.22;2.70;;;589.70;1587.20;;;;;;4982755;28;20030;-74
2024/04/05 08:43:17;;;;;;;6.47;2.30;;;614.60;1561.60;;;;;;4982016;28;20023;-74
2024/04/05 08:45:44;;;;;;;4.03;2.00;;;614.40;1561.60;;;;;;4986627;28;20027;-74
2024/04/05 08:48:11;;;;;;;5.03;1.92;;;614.50;1536.00;;;;;;4990095;28;20027;-74
2024/04/05 08:50:37;;;;;;;4.97;2.03;;;614.80;1587.20;;;;;;4986017;28;20025;-73
2024/04/05 08:53:08;;;;;;;4.60;2.20;;;614.80;1510.40;;;;;;4990144;28;20066;-74
2024/04/05 08:55:35;;;;;;;3.15;1.60;;;614.90;1561.60;;;;;;4988495;28;20492;-74
2024/04/05 08:58:02;;;;;;;8.45;2.30;;;614.90;1510.40;;;;;;4978722;28;20043;-78
2024/04/05 09:00:28;;;;;;;7.68;2.80;;;615.10;1510.40;;;;;;4968344;28;20026;-76
2024/04/05 09:02:56;;;;;;;4.43;2.00;;;615.20;1484.80;;;;;;4986138;28;20030;-73
2024/04/05 09:05:23;;;;;;;4.85;2.25;;;615.30;1484.80;;;;;;4989199;28;20411;-73
2024/04/05 09:08:06;;;;;;;6.38;1.80;;;615.30;1484.80;;;;;;4981470;28;20453;-74
2024/04/05 09:10:32;;;;;;;4.00;1.60;;;640.00;1484.80;;;;;;4987735;28;20132;-74
2024/04/05 09:13:01;;;;;;;4.25;1.70;;;615.30;1459.20;;;;;;4990456;28;20384;-75
2024/04/05 09:15:29;;;;;;;4.82;1.90;;;640.00;1459.20;;;;;;4989530;28;20026;-73
2024/04/05 09:17:55;;;;;;;9.23;2.38;;;640.20;1484.80;;;;;;4983844;28;20131;-77
2024/04/05 09:20:24;;;;;;;6.50;1.98;;;640.70;1433.60;;;;;;4984946;28;20050;-74
2024/04/05 09:23:06;;;;;;;4.88;2.30;;;640.70;1408.00;;;;;;4983421;28;20027;-75
2024/04/05 09:25:38;;;;;;;4.85;2.28;;;665.60;1433.60;;;;;;4985728;28;20030;-74
2024/04/05 09:28:10;;;;;;;8.50;2.22;;;640.80;1382.40;;;;;;4989384;28;20026;-74
2024/04/05 09:30:36;;;;;;;6.20;2.50;;;665.60;1433.60;;;;;;4978928;28;20094;-74
2024/04/05 09:33:02;;;;;;;5.45;2.08;;;665.60;1408.00;;;;;;4986870;28;20022;-74
2024/04/05 09:35:33;;;;;;;6.75;2.00;;;640.70;1382.40;;;;;;4984881;28;20019;-74
2024/04/05 09:37:59;;;;;;;7.68;1.90;;;665.60;1408.00;;;;;;4987070;28;20037;-73
2024/04/05 09:40:25;;;;;;;13.68;2.15;;;665.90;1408.00;;;;;;4978381;28;20035;-74
2024/04/05 09:42:54;;;;;;;3.65;1.50;;;665.90;1382.40;;;;;;4978842;28;20027;-74
2024/04/05 09:45:26;;;;;;;6.47;1.95;;;665.90;1382.40;;;;;;4983467;28;20030;-79
2024/04/05 09:47:53;;;;;;;5.53;2.35;;;666.20;1382.40;;;;;;4981256;28;20506;-74
2024/04/05 09:50:22;;;;;;;7.53;1.80;;;665.90;1356.80;;;;;;4984701;28;20027;-79
2024/04/05 09:52:52;;;;;;;4.85;2.28;;;666.00;1382.40;;;;;;4984760;28;20027;-80
2024/04/05 09:55:23;;;;;;;7.85;2.92;;;666.30;1331.20;;;;;;4985697;28;20054;-74
2024/04/05 09:57:50;;;;;;;9.05;2.80;;;666.40;1356.80;;;;;;4984667;28;20054;-78
2024/04/05 10:00:21;;;;;;;5.85;2.65;;;666.10;1356.80;;;;;;4981125;28;20033;-75
2024/04/05 10:02:50;;;;;;;7.45;2.40;;;666.20;1305.60;;;;;;4980747;28;20042;-74
2024/04/05 10:05:28;;;;;;;7.43;1.70;;;691.20;1280.00;;;;;;4988546;28;20380;-76
2024/04/05 10:07:55;;;;;;;3.97;1.77;;;691.40;1280.00;;;;;;4986225;28;20038;-77
2024/04/05 10:10:34;;;;;;;4.57;1.95;;;691.60;1280.00;;;;;;4979703;28;20022;-78
2024/04/05 10:13:24;;;;;;;7.45;2.83;;;691.70;1228.80;;;;;;4969061;28;20018;-78
2024/04/05 10:15:58;;;;;;;10.38;2.90;;;691.80;1228.80;;;;;;4982136;28;20034;-75
2024/04/05 10:18:28;;;;;;;11.05;2.45;;;692.00;1228.80;;;;;;4979059;28;20114;-75
2024/04/05 10:21:08;;;;;;;6.45;2.10;;;716.80;1254.40;;;;;;4982882;28;20038;-78
2024/04/05 10:23:38;;;;;;;7.72;1.85;;;716.80;1254.40;;;;;;4981844;28;20035;-74
2024/04/05 10:26:07;;;;;;;6.07;2.10;;;716.80;1254.40;;;;;;4965479;28;20033;-75
2024/04/05 10:28:33;;;;;;;8.40;2.75;;;717.00;1228.80;;;;;;4980201;28;20018;-77
2024/04/05 10:31:02;;;;;;;5.18;1.60;;;717.00;1254.40;;;;;;4977597;28;20539;-74
2024/04/05 10:33:30;;;;;;;6.88;1.95;;;717.20;1203.20;;;;;;4977945;28;20042;-76
2024/04/05 10:36:00;;;;;;;3.45;1.58;;;717.20;1228.80;;;;;;4986952;28;20034;-73
2024/04/05 10:38:29;;;;;;;5.63;1.92;;;717.40;1254.40;;;;;;4983365;28;20026;-77
2024/04/05 10:41:00;;;;;;;3.42;2.20;;;717.50;1203.20;;;;;;4989224;28;20018;-75
2024/04/05 10:43:26;;;;;;;7.80;2.42;;;717.50;1177.60;;;;;;4988260;28;20365;-74
2024/04/05 10:45:57;;;;;;;5.90;2.40;;;717.50;1228.80;;;;;;4989284;28;20026;-77
2024/04/05 10:48:23;;;;;;;6.22;1.88;;;717.70;1203.20;;;;;;4988612;28;20026;-74
2024/04/05 10:50:53;;;;;;;7.05;2.05;;;717.70;1382.40;;;;;;4984023;28;20033;-75
2024/04/05 10:53:22;;;;;;;5.07;1.90;;;717.70;1152.00;;;;;;4983440;28;20026;-75
2024/04/05 10:55:51;;;;;;;2.42;1.48;;;742.40;1177.60;;;;;;4983607;28;20129;-76
2024/04/05 10:58:18;;;;;;;3.35;1.92;;;717.70;1203.20;;;;;;4982495;28;20476;-73
2024/04/05 11:00:44;;;;;;;3.90;1.83;;;717.70;1203.20;;;;;;4991407;28;20022;-73
2024/04/05 11:03:13;;;;;;;11.27;2.80;;;742.40;1177.60;;;;;;4980476;28;20508;-76
2024/04/05 11:05:39;;;;;;;5.15;2.00;;;742.40;1203.20;;;;;;4978858;28;20066;-74
2024/04/05 11:08:08;;;;;;;5.32;2.67;;;742.40;1203.20;;;;;;4985140;28;20022;-75
2024/04/05 11:10:35;;;;;;;4.80;1.70;;;742.40;1177.60;;;;;;4985487;28;20472;-78
2024/04/05 11:13:18;;;;;;;6.50;1.90;;;742.50;1433.60;;;;;;4983599;28;20034;-76
2024/04/05 11:15:45;;;;;;;11.77;1.50;;;742.40;1356.80;;;;;;4983582;28;20451;-78
2024/04/05 11:18:14;;;;;;;3.60;1.60;;;742.50;1177.60;;;;;;4996393;28;20026;-74
2024/04/05 11:20:41;;;;;;;3.80;1.65;;;742.70;1203.20;;;;;;4977511;28;20084;-75
2024/04/05 11:23:21;;;;;;;4.70;2.38;;;742.80;1177.60;;;;;;4985761;28;20021;-75
2024/04/05 11:25:54;;;;;;;6.85;2.78;;;742.90;1152.00;;;;;;4984201;28;20392;-74
2024/04/05 11:28:23;;;;;;;4.00;1.60;;;717.50;1177.60;;;;;;4982512;28;20038;-75
2024/04/05 11:30:53;;;;;;;6.60;1.90;;;717.70;1177.60;;;;;;4980896;28;20026;-75
2024/04/05 11:33:19;;;;;;;21.02;3.10;;;742.50;1177.60;;;;;;4978341;28;20038;-78
2024/04/05 11:35:48;;;;;;;3.80;2.00;;;742.80;1177.60;;;;;;4982289;28;20027;-76
2024/04/05 11:38:15;;;;;;;5.72;2.10;;;742.90;1177.60;;;;;;4977111;28;20031;-76
2024/04/05 11:40:42;;;;;;;4.22;1.70;;;742.90;1126.40;;;;;;4987478;28;20033;-75
2024/04/05 11:43:08;;;;;;;6.10;1.65;;;742.90;1126.40;;;;;;4974832;28;20019;-76
2024/04/05 11:45:38;;;;;;;7.85;1.77;;;742.40;1177.60;;;;;;4980490;28;20661;-75
2024/04/05 11:48:04;;;;;;;4.15;1.73;;;742.60;1152.00;;;;;;4985880;28;20026;-75
2024/04/05 11:50:33;;;;;;;4.57;2.25;;;742.80;1152.00;;;;;;4985831;28;20109;-74
2024/04/05 11:53:00;;;;;;;5.32;2.03;;;742.90;1152.00;;;;;;4974145;28;20046;-74
2024/04/05 11:55:25;;;;;;;4.20;1.50;;;742.80;1126.40;;;;;;4985299;28;20493;-81
2024/04/05 11:57:53;;;;;;;7.60;2.00;;;742.90;1100.80;;;;;;4986255;28;20027;-75
2024/04/05 12:00:18;;;;;;;5.90;1.55;;;742.80;1100.80;;;;;;4964795;28;20030;-73
2024/04/05 12:02:44;;;;;;;3.33;1.58;;;717.70;1126.40;;;;;;4977464;28;20476;-76
2024/04/05 12:05:11;;;;;;;3.35;1.33;;;742.40;1177.60;;;;;;4987258;28;20031;-74
2024/04/05 12:07:37;;;;;;;7.03;1.90;;;742.70;1177.60;;;;;;4983348;28;20022;-74
2024/04/05 12:10:04;;;;;;;6.85;2.10;;;742.60;1177.60;;;;;;4983626;28;20023;-74
2024/04/05 12:12:30;;;;;;;4.40;1.90;;;742.60;1152.00;;;;;;4984131;28;20050;-74
2024/04/05 12:14:57;;;;;;;2.88;1.30;;;742.80;1177.60;;;;;;4975699;28;20023;-75
2024/04/05 12:17:23;;;;;;;1.70;1.20;;;742.80;1152.00;;;;;;4978391;28;20465;-74
2024/04/05 12:19:49;;;;;;;6.60;1.67;;;742.40;1177.60;;;;;;4978741;28;20058;-72